sensor_id;sensor_type;location;lat;lon;timestamp;P1;P2;P0
65012;PMS5003;51715;39.432;-77.518;2023-06-05T00:00:14;10;10;
65012;PMS5003;51715;39.432;-77.518;2023-06-05T00:02:42;7;7;
65012;PMS5003;51715;39.432;-77.518;2023-06-05T00:05:10;10;9;
65012;PMS5003;51715;39.432;-77.518;2023-06-05T00:07:39;4;4;
65012;PMS5003;51715;39.432;-77.518;2023-06-05T00:10:08;10;10;
65012;PMS5003;51715;39.432;-77.518;2023-06-05T00:12:36;8;8;
65012;PMS5003;51715;39.432;-77.518;2023-06-05T00:15:05;7;7;
65012;PMS5003;51715;39.432;-77.518;2023-06-05T00:17:34;9;9;
65012;PMS5003;51715;39.432;-77.518;2023-06-05T00:20:05;5;5;
65012;PMS5003;51715;39.432;-77.518;2023-06-05T00:22:34;6;6;
65012;PMS5003;51715;39.432;-77.518;2023-06-05T00:25:02;9;9;
65012;PMS5003;51715;39.432;-77.518;2023-06-05T00:27:31;9;7;
65012;PMS5003;51715;39.432;-77.518;2023-06-05T00:29:59;8;7;
65012;PMS5003;51715;39.432;-77.518;2023-06-05T00:32:27;8;8;
65012;PMS5003;51715;39.432;-77.518;2023-06-05T00:34:55;10;9;
65012;PMS5003;51715;39.432;-77.518;2023-06-05T00:37:24;10;8;
65012;PMS5003;51715;39.432;-77.518;2023-06-05T00:39:52;14;10;
65012;PMS5003;51715;39.432;-77.518;2023-06-05T00:42:20;13;11;
65012;PMS5003;51715;39.432;-77.518;2023-06-05T00:44:48;13;10;
65012;PMS5003;51715;39.432;-77.518;2023-06-05T00:47:17;14;10;
65012;PMS5003;51715;39.432;-77.518;2023-06-05T00:49:45;11;11;
65012;PMS5003;51715;39.432;-77.518;2023-06-05T00:52:13;15;12;
65012;PMS5003;51715;39.432;-77.518;2023-06-05T00:54:44;12;11;
65012;PMS5003;51715;39.432;-77.518;2023-06-05T00:57:11;16;14;
65012;PMS5003;51715;39.432;-77.518;2023-06-05T00:59:40;19;18;
65012;PMS5003;51715;39.432;-77.518;2023-06-05T01:02:08;21;20;
65012;PMS5003;51715;39.432;-77.518;2023-06-05T01:04:36;18;17;
65012;PMS5003;51715;39.432;-77.518;2023-06-05T01:07:04;12;12;
65012;PMS5003;51715;39.432;-77.518;2023-06-05T01:09:32;12;12;
65012;PMS5003;51715;39.432;-77.518;2023-06-05T01:12:03;11;10;
65012;PMS5003;51715;39.432;-77.518;2023-06-05T01:14:38;10;8;
65012;PMS5003;51715;39.432;-77.518;2023-06-05T01:17:10;8;8;
65012;PMS5003;51715;39.432;-77.518;2023-06-05T01:19:41;9;9;
65012;PMS5003;51715;39.432;-77.518;2023-06-05T01:22:10;11;11;
65012;PMS5003;51715;39.432;-77.518;2023-06-05T01:24:38;7;7;
65012;PMS5003;51715;39.432;-77.518;2023-06-05T01:27:08;9;8;
65012;PMS5003;51715;39.432;-77.518;2023-06-05T01:29:45;10;10;
65012;PMS5003;51715;39.432;-77.518;2023-06-05T01:32:19;8;8;
65012;PMS5003;51715;39.432;-77.518;2023-06-05T01:34:52;10;10;
65012;PMS5003;51715;39.432;-77.518;2023-06-05T01:37:21;10;9;
65012;PMS5003;51715;39.432;-77.518;2023-06-05T01:39:53;8;8;
65012;PMS5003;51715;39.432;-77.518;2023-06-05T01:42:22;13;13;
65012;PMS5003;51715;39.432;-77.518;2023-06-05T01:44:52;12;11;
65012;PMS5003;51715;39.432;-77.518;2023-06-05T01:47:19;11;11;
65012;PMS5003;51715;39.432;-77.518;2023-06-05T01:49:48;12;12;
65012;PMS5003;51715;39.432;-77.518;2023-06-05T01:52:16;12;12;
65012;PMS5003;51715;39.432;-77.518;2023-06-05T01:54:45;16;15;
65012;PMS5003;51715;39.432;-77.518;2023-06-05T01:57:14;14;11;
65012;PMS5003;51715;39.432;-77.518;2023-06-05T01:59:42;14;13;
65012;PMS5003;51715;39.432;-77.518;2023-06-05T02:02:10;11;11;
65012;PMS5003;51715;39.432;-77.518;2023-06-05T02:04:39;11;10;
65012;PMS5003;51715;39.432;-77.518;2023-06-05T02:07:07;12;10;
65012;PMS5003;51715;39.432;-77.518;2023-06-05T02:09:34;13;13;
65012;PMS5003;51715;39.432;-77.518;2023-06-05T02:12:03;17;17;
65012;PMS5003;51715;39.432;-77.518;2023-06-05T02:14:32;14;14;
65012;PMS5003;51715;39.432;-77.518;2023-06-05T02:17:01;21;19;
65012;PMS5003;51715;39.432;-77.518;2023-06-05T02:19:30;19;17;
65012;PMS5003;51715;39.432;-77.518;2023-06-05T02:21:58;22;18;
65012;PMS5003;51715;39.432;-77.518;2023-06-05T02:24:27;22;22;
65012;PMS5003;51715;39.432;-77.518;2023-06-05T02:26:55;25;23;
65012;PMS5003;51715;39.432;-77.518;2023-06-05T02:29:23;24;21;
65012;PMS5003;51715;39.432;-77.518;2023-06-05T02:31:53;24;22;
65012;PMS5003;51715;39.432;-77.518;2023-06-05T02:34:22;29;26;
65012;PMS5003;51715;39.432;-77.518;2023-06-05T02:36:50;29;26;
65012;PMS5003;51715;39.432;-77.518;2023-06-05T02:39:17;28;25;
65012;PMS5003;51715;39.432;-77.518;2023-06-05T02:41:46;33;28;
65012;PMS5003;51715;39.432;-77.518;2023-06-05T02:44:13;32;29;
65012;PMS5003;51715;39.432;-77.518;2023-06-05T02:46:42;31;28;
65012;PMS5003;51715;39.432;-77.518;2023-06-05T02:49:10;26;24;
65012;PMS5003;51715;39.432;-77.518;2023-06-05T02:51:38;24;24;
65012;PMS5003;51715;39.432;-77.518;2023-06-05T02:54:07;26;23;
65012;PMS5003;51715;39.432;-77.518;2023-06-05T02:56:35;21;17;
65012;PMS5003;51715;39.432;-77.518;2023-06-05T02:59:06;36;31;
65012;PMS5003;51715;39.432;-77.518;2023-06-05T03:01:35;29;27;
65012;PMS5003;51715;39.432;-77.518;2023-06-05T03:04:03;26;25;
65012;PMS5003;51715;39.432;-77.518;2023-06-05T03:06:31;28;23;
65012;PMS5003;51715;39.432;-77.518;2023-06-05T03:08:59;21;20;
65012;PMS5003;51715;39.432;-77.518;2023-06-05T03:11:28;19;19;
65012;PMS5003;51715;39.432;-77.518;2023-06-05T03:13:56;22;21;
65012;PMS5003;51715;39.432;-77.518;2023-06-05T03:16:24;21;20;
65012;PMS5003;51715;39.432;-77.518;2023-06-05T03:18:52;15;15;
65012;PMS5003;51715;39.432;-77.518;2023-06-05T03:21:20;19;17;
65012;PMS5003;51715;39.432;-77.518;2023-06-05T03:23:48;15;15;
65012;PMS5003;51715;39.432;-77.518;2023-06-05T03:26:17;15;12;
65012;PMS5003;51715;39.432;-77.518;2023-06-05T03:28:46;16;12;
65012;PMS5003;51715;39.432;-77.518;2023-06-05T03:31:14;12;12;
65012;PMS5003;51715;39.432;-77.518;2023-06-05T03:33:42;22;18;
65012;PMS5003;51715;39.432;-77.518;2023-06-05T03:36:10;11;10;
65012;PMS5003;51715;39.432;-77.518;2023-06-05T03:38:38;15;15;
65012;PMS5003;51715;39.432;-77.518;2023-06-05T03:41:06;16;15;
65012;PMS5003;51715;39.432;-77.518;2023-06-05T03:43:34;18;15;
65012;PMS5003;51715;39.432;-77.518;2023-06-05T03:46:02;12;9;
65012;PMS5003;51715;39.432;-77.518;2023-06-05T03:48:31;7;7;
65012;PMS5003;51715;39.432;-77.518;2023-06-05T03:51:06;12;12;
65012;PMS5003;51715;39.432;-77.518;2023-06-05T03:53:35;11;11;
65012;PMS5003;51715;39.432;-77.518;2023-06-05T03:56:03;10;9;
65012;PMS5003;51715;39.432;-77.518;2023-06-05T03:58:31;7;7;
65012;PMS5003;51715;39.432;-77.518;2023-06-05T04:03:58;12;9;
65012;PMS5003;51715;39.432;-77.518;2023-06-05T04:06:26;11;10;
65012;PMS5003;51715;39.432;-77.518;2023-06-05T04:08:54;10;10;
65012;PMS5003;51715;39.432;-77.518;2023-06-05T04:11:22;11;11;
65012;PMS5003;51715;39.432;-77.518;2023-06-05T04:13:51;8;8;
65012;PMS5003;51715;39.432;-77.518;2023-06-05T04:16:19;13;12;
65012;PMS5003;51715;39.432;-77.518;2023-06-05T04:18:47;7;7;
65012;PMS5003;51715;39.432;-77.518;2023-06-05T04:21:15;11;10;
65012;PMS5003;51715;39.432;-77.518;2023-06-05T04:23:43;12;9;
65012;PMS5003;51715;39.432;-77.518;2023-06-05T04:26:10;12;10;
65012;PMS5003;51715;39.432;-77.518;2023-06-05T04:28:38;14;11;
65012;PMS5003;51715;39.432;-77.518;2023-06-05T04:31:07;11;11;
65012;PMS5003;51715;39.432;-77.518;2023-06-05T04:33:34;12;12;
65012;PMS5003;51715;39.432;-77.518;2023-06-05T04:36:02;11;11;
65012;PMS5003;51715;39.432;-77.518;2023-06-05T04:38:30;15;14;
65012;PMS5003;51715;39.432;-77.518;2023-06-05T04:40:58;12;12;
65012;PMS5003;51715;39.432;-77.518;2023-06-05T04:43:27;15;15;
65012;PMS5003;51715;39.432;-77.518;2023-06-05T04:45:55;16;14;
65012;PMS5003;51715;39.432;-77.518;2023-06-05T04:48:24;11;10;
65012;PMS5003;51715;39.432;-77.518;2023-06-05T04:50:52;12;11;
65012;PMS5003;51715;39.432;-77.518;2023-06-05T04:53:20;12;11;
65012;PMS5003;51715;39.432;-77.518;2023-06-05T04:55:47;16;12;
65012;PMS5003;51715;39.432;-77.518;2023-06-05T04:58:16;13;12;
65012;PMS5003;51715;39.432;-77.518;2023-06-05T05:00:44;10;10;
65012;PMS5003;51715;39.432;-77.518;2023-06-05T05:03:11;9;9;
65012;PMS5003;51715;39.432;-77.518;2023-06-05T05:05:40;10;10;
65012;PMS5003;51715;39.432;-77.518;2023-06-05T05:08:08;11;11;
65012;PMS5003;51715;39.432;-77.518;2023-06-05T05:10:37;9;9;
65012;PMS5003;51715;39.432;-77.518;2023-06-05T05:13:05;9;9;
65012;PMS5003;51715;39.432;-77.518;2023-06-05T05:15:33;17;15;
65012;PMS5003;51715;39.432;-77.518;2023-06-05T05:18:01;12;11;
65012;PMS5003;51715;39.432;-77.518;2023-06-05T05:20:29;11;11;
65012;PMS5003;51715;39.432;-77.518;2023-06-05T05:22:58;11;11;
65012;PMS5003;51715;39.432;-77.518;2023-06-05T05:25:25;8;8;
65012;PMS5003;51715;39.432;-77.518;2023-06-05T05:27:53;11;11;
65012;PMS5003;51715;39.432;-77.518;2023-06-05T05:30:21;15;12;
65012;PMS5003;51715;39.432;-77.518;2023-06-05T05:32:50;14;14;
65012;PMS5003;51715;39.432;-77.518;2023-06-05T05:35:18;18;16;
65012;PMS5003;51715;39.432;-77.518;2023-06-05T05:37:46;11;11;
65012;PMS5003;51715;39.432;-77.518;2023-06-05T05:40:14;13;11;
65012;PMS5003;51715;39.432;-77.518;2023-06-05T05:42:42;15;15;
65012;PMS5003;51715;39.432;-77.518;2023-06-05T05:45:10;15;14;
65012;PMS5003;51715;39.432;-77.518;2023-06-05T05:47:38;15;15;
65012;PMS5003;51715;39.432;-77.518;2023-06-05T05:50:06;14;11;
65012;PMS5003;51715;39.432;-77.518;2023-06-05T05:52:35;13;13;
65012;PMS5003;51715;39.432;-77.518;2023-06-05T05:55:03;12;12;
65012;PMS5003;51715;39.432;-77.518;2023-06-05T06:02:23;14;11;
65012;PMS5003;51715;39.432;-77.518;2023-06-05T06:05:09;13;13;
65012;PMS5003;51715;39.432;-77.518;2023-06-05T06:07:39;12;12;
65012;PMS5003;51715;39.432;-77.518;2023-06-05T06:10:08;11;11;
65012;PMS5003;51715;39.432;-77.518;2023-06-05T06:12:36;14;12;
65012;PMS5003;51715;39.432;-77.518;2023-06-05T06:15:05;12;10;
65012;PMS5003;51715;39.432;-77.518;2023-06-05T06:17:34;13;13;
65012;PMS5003;51715;39.432;-77.518;2023-06-05T06:20:03;13;12;
65012;PMS5003;51715;39.432;-77.518;2023-06-05T06:22:32;10;10;
65012;PMS5003;51715;39.432;-77.518;2023-06-05T06:25:00;14;12;
65012;PMS5003;51715;39.432;-77.518;2023-06-05T06:27:28;14;12;
65012;PMS5003;51715;39.432;-77.518;2023-06-05T06:29:56;15;12;
65012;PMS5003;51715;39.432;-77.518;2023-06-05T06:32:24;13;12;
65012;PMS5003;51715;39.432;-77.518;2023-06-05T06:34:53;16;12;
65012;PMS5003;51715;39.432;-77.518;2023-06-05T06:37:21;13;12;
65012;PMS5003;51715;39.432;-77.518;2023-06-05T06:39:50;16;15;
65012;PMS5003;51715;39.432;-77.518;2023-06-05T06:42:17;12;12;
65012;PMS5003;51715;39.432;-77.518;2023-06-05T06:44:45;14;11;
65012;PMS5003;51715;39.432;-77.518;2023-06-05T06:47:13;19;16;
65012;PMS5003;51715;39.432;-77.518;2023-06-05T06:49:41;15;15;
65012;PMS5003;51715;39.432;-77.518;2023-06-05T06:52:09;16;13;
65012;PMS5003;51715;39.432;-77.518;2023-06-05T06:54:37;11;11;
65012;PMS5003;51715;39.432;-77.518;2023-06-05T06:57:05;16;16;
65012;PMS5003;51715;39.432;-77.518;2023-06-05T06:59:33;11;11;
65012;PMS5003;51715;39.432;-77.518;2023-06-05T07:02:09;13;12;
65012;PMS5003;51715;39.432;-77.518;2023-06-05T07:04:39;10;10;
65012;PMS5003;51715;39.432;-77.518;2023-06-05T07:07:08;13;12;
65012;PMS5003;51715;39.432;-77.518;2023-06-05T07:09:37;14;12;
65012;PMS5003;51715;39.432;-77.518;2023-06-05T07:12:07;14;13;
65012;PMS5003;51715;39.432;-77.518;2023-06-05T07:14:41;16;13;
65012;PMS5003;51715;39.432;-77.518;2023-06-05T07:17:10;17;14;
65012;PMS5003;51715;39.432;-77.518;2023-06-05T07:19:38;14;12;
65012;PMS5003;51715;39.432;-77.518;2023-06-05T07:22:07;13;12;
65012;PMS5003;51715;39.432;-77.518;2023-06-05T07:24:35;10;9;
65012;PMS5003;51715;39.432;-77.518;2023-06-05T07:27:04;12;12;
65012;PMS5003;51715;39.432;-77.518;2023-06-05T07:29:32;15;14;
65012;PMS5003;51715;39.432;-77.518;2023-06-05T07:32:00;21;16;
65012;PMS5003;51715;39.432;-77.518;2023-06-05T07:34:28;10;9;
65012;PMS5003;51715;39.432;-77.518;2023-06-05T07:36:59;12;12;
65012;PMS5003;51715;39.432;-77.518;2023-06-05T07:39:27;13;13;
65012;PMS5003;51715;39.432;-77.518;2023-06-05T07:41:55;14;11;
65012;PMS5003;51715;39.432;-77.518;2023-06-05T07:44:22;14;13;
65012;PMS5003;51715;39.432;-77.518;2023-06-05T07:46:50;13;13;
65012;PMS5003;51715;39.432;-77.518;2023-06-05T07:49:19;13;13;
65012;PMS5003;51715;39.432;-77.518;2023-06-05T07:51:48;12;10;
65012;PMS5003;51715;39.432;-77.518;2023-06-05T07:54:16;15;12;
65012;PMS5003;51715;39.432;-77.518;2023-06-05T07:56:45;19;15;
65012;PMS5003;51715;39.432;-77.518;2023-06-05T07:59:14;14;14;
65012;PMS5003;51715;39.432;-77.518;2023-06-05T08:01:42;12;12;
65012;PMS5003;51715;39.432;-77.518;2023-06-05T08:04:10;16;13;
65012;PMS5003;51715;39.432;-77.518;2023-06-05T08:06:38;12;11;
65012;PMS5003;51715;39.432;-77.518;2023-06-05T08:09:06;13;13;
65012;PMS5003;51715;39.432;-77.518;2023-06-05T08:11:35;16;14;
65012;PMS5003;51715;39.432;-77.518;2023-06-05T08:14:06;15;15;
65012;PMS5003;51715;39.432;-77.518;2023-06-05T08:16:35;13;13;
65012;PMS5003;51715;39.432;-77.518;2023-06-05T08:19:03;13;13;
65012;PMS5003;51715;39.432;-77.518;2023-06-05T08:21:31;16;15;
65012;PMS5003;51715;39.432;-77.518;2023-06-05T08:24:00;10;10;
65012;PMS5003;51715;39.432;-77.518;2023-06-05T08:26:28;19;15;
65012;PMS5003;51715;39.432;-77.518;2023-06-05T08:28:57;14;13;
65012;PMS5003;51715;39.432;-77.518;2023-06-05T08:31:26;14;14;
65012;PMS5003;51715;39.432;-77.518;2023-06-05T08:33:53;11;10;
65012;PMS5003;51715;39.432;-77.518;2023-06-05T08:36:22;14;14;
65012;PMS5003;51715;39.432;-77.518;2023-06-05T08:38:50;16;15;
65012;PMS5003;51715;39.432;-77.518;2023-06-05T08:41:18;15;15;
65012;PMS5003;51715;39.432;-77.518;2023-06-05T08:43:47;15;14;
65012;PMS5003;51715;39.432;-77.518;2023-06-05T08:46:15;15;15;
65012;PMS5003;51715;39.432;-77.518;2023-06-05T08:48:43;19;15;
65012;PMS5003;51715;39.432;-77.518;2023-06-05T08:51:13;16;16;
65012;PMS5003;51715;39.432;-77.518;2023-06-05T08:53:42;15;13;
65012;PMS5003;51715;39.432;-77.518;2023-06-05T08:56:17;22;17;
65012;PMS5003;51715;39.432;-77.518;2023-06-05T08:58:46;15;15;
65012;PMS5003;51715;39.432;-77.518;2023-06-05T09:01:15;22;17;
65012;PMS5003;51715;39.432;-77.518;2023-06-05T09:03:44;19;17;
65012;PMS5003;51715;39.432;-77.518;2023-06-05T09:06:12;15;14;
65012;PMS5003;51715;39.432;-77.518;2023-06-05T09:08:40;13;13;
65012;PMS5003;51715;39.432;-77.518;2023-06-05T09:11:24;17;16;
65012;PMS5003;51715;39.432;-77.518;2023-06-05T09:13:54;16;13;
65012;PMS5003;51715;39.432;-77.518;2023-06-05T09:16:38;14;12;
65012;PMS5003;51715;39.432;-77.518;2023-06-05T09:19:07;16;14;
65012;PMS5003;51715;39.432;-77.518;2023-06-05T09:21:36;16;15;
65012;PMS5003;51715;39.432;-77.518;2023-06-05T09:24:12;15;15;
65012;PMS5003;51715;39.432;-77.518;2023-06-05T09:26:50;13;13;
65012;PMS5003;51715;39.432;-77.518;2023-06-05T09:29:22;18;14;
65012;PMS5003;51715;39.432;-77.518;2023-06-05T09:31:52;17;17;
65012;PMS5003;51715;39.432;-77.518;2023-06-05T09:34:22;14;13;
65012;PMS5003;51715;39.432;-77.518;2023-06-05T09:36:52;14;14;
65012;PMS5003;51715;39.432;-77.518;2023-06-05T09:39:20;14;13;
65012;PMS5003;51715;39.432;-77.518;2023-06-05T09:41:48;14;14;
65012;PMS5003;51715;39.432;-77.518;2023-06-05T09:44:17;15;14;
65012;PMS5003;51715;39.432;-77.518;2023-06-05T09:46:51;16;15;
65012;PMS5003;51715;39.432;-77.518;2023-06-05T09:49:24;19;16;
65012;PMS5003;51715;39.432;-77.518;2023-06-05T09:51:55;12;12;
65012;PMS5003;51715;39.432;-77.518;2023-06-05T09:54:24;15;13;
65012;PMS5003;51715;39.432;-77.518;2023-06-05T09:56:56;16;14;
65012;PMS5003;51715;39.432;-77.518;2023-06-05T09:59:27;15;14;
65012;PMS5003;51715;39.432;-77.518;2023-06-05T10:01:56;13;13;
65012;PMS5003;51715;39.432;-77.518;2023-06-05T10:04:27;13;12;
65012;PMS5003;51715;39.432;-77.518;2023-06-05T10:06:59;17;17;
65012;PMS5003;51715;39.432;-77.518;2023-06-05T10:09:28;18;16;
65012;PMS5003;51715;39.432;-77.518;2023-06-05T10:11:57;18;15;
65012;PMS5003;51715;39.432;-77.518;2023-06-05T10:14:26;13;13;
65012;PMS5003;51715;39.432;-77.518;2023-06-05T10:16:54;16;15;
65012;PMS5003;51715;39.432;-77.518;2023-06-05T10:19:24;16;12;
65012;PMS5003;51715;39.432;-77.518;2023-06-05T10:21:53;15;14;
65012;PMS5003;51715;39.432;-77.518;2023-06-05T10:24:23;18;17;
65012;PMS5003;51715;39.432;-77.518;2023-06-05T10:28:39;23;19;
65012;PMS5003;51715;39.432;-77.518;2023-06-05T10:31:19;14;14;
65012;PMS5003;51715;39.432;-77.518;2023-06-05T10:33:58;16;14;
65012;PMS5003;51715;39.432;-77.518;2023-06-05T10:36:37;16;13;
65012;PMS5003;51715;39.432;-77.518;2023-06-05T10:39:14;16;15;
65012;PMS5003;51715;39.432;-77.518;2023-06-05T10:41:43;16;16;
65012;PMS5003;51715;39.432;-77.518;2023-06-05T10:44:13;16;15;
65012;PMS5003;51715;39.432;-77.518;2023-06-05T10:46:41;17;16;
65012;PMS5003;51715;39.432;-77.518;2023-06-05T10:49:10;15;13;
65012;PMS5003;51715;39.432;-77.518;2023-06-05T10:51:39;17;17;
65012;PMS5003;51715;39.432;-77.518;2023-06-05T10:54:10;17;17;
65012;PMS5003;51715;39.432;-77.518;2023-06-05T10:56:55;13;13;
65012;PMS5003;51715;39.432;-77.518;2023-06-05T10:59:25;14;12;
65012;PMS5003;51715;39.432;-77.518;2023-06-05T11:02:27;17;15;
65012;PMS5003;51715;39.432;-77.518;2023-06-05T11:05:11;14;14;
65012;PMS5003;51715;39.432;-77.518;2023-06-05T11:07:39;14;14;
65012;PMS5003;51715;39.432;-77.518;2023-06-05T11:10:10;16;15;
65012;PMS5003;51715;39.432;-77.518;2023-06-05T11:13:12;19;15;
65012;PMS5003;51715;39.432;-77.518;2023-06-05T11:15:41;14;12;
65012;PMS5003;51715;39.432;-77.518;2023-06-05T11:18:42;14;13;
65012;PMS5003;51715;39.432;-77.518;2023-06-05T11:21:11;14;12;
65012;PMS5003;51715;39.432;-77.518;2023-06-05T11:23:39;19;17;
65012;PMS5003;51715;39.432;-77.518;2023-06-05T11:26:40;18;17;
65012;PMS5003;51715;39.432;-77.518;2023-06-05T11:29:14;15;13;
65012;PMS5003;51715;39.432;-77.518;2023-06-05T11:31:44;20;17;
65012;PMS5003;51715;39.432;-77.518;2023-06-05T11:34:13;19;18;
65012;PMS5003;51715;39.432;-77.518;2023-06-05T11:36:42;13;12;
65012;PMS5003;51715;39.432;-77.518;2023-06-05T11:39:11;17;15;
65012;PMS5003;51715;39.432;-77.518;2023-06-05T11:41:44;16;13;
65012;PMS5003;51715;39.432;-77.518;2023-06-05T11:44:13;16;16;
65012;PMS5003;51715;39.432;-77.518;2023-06-05T11:46:42;27;25;
65012;PMS5003;51715;39.432;-77.518;2023-06-05T11:49:22;26;22;
65012;PMS5003;51715;39.432;-77.518;2023-06-05T11:51:51;20;19;
65012;PMS5003;51715;39.432;-77.518;2023-06-05T11:54:25;19;19;
65012;PMS5003;51715;39.432;-77.518;2023-06-05T11:56:56;17;16;
65012;PMS5003;51715;39.432;-77.518;2023-06-05T11:59:26;17;15;
65012;PMS5003;51715;39.432;-77.518;2023-06-05T12:01:54;17;14;
65012;PMS5003;51715;39.432;-77.518;2023-06-05T12:04:22;14;14;
65012;PMS5003;51715;39.432;-77.518;2023-06-05T12:06:51;14;14;
65012;PMS5003;51715;39.432;-77.518;2023-06-05T12:09:19;12;12;
65012;PMS5003;51715;39.432;-77.518;2023-06-05T12:11:47;21;14;
65012;PMS5003;51715;39.432;-77.518;2023-06-05T12:14:27;13;12;
65012;PMS5003;51715;39.432;-77.518;2023-06-05T12:16:57;13;12;
65012;PMS5003;51715;39.432;-77.518;2023-06-05T12:19:26;12;12;
65012;PMS5003;51715;39.432;-77.518;2023-06-05T12:22:01;15;14;
65012;PMS5003;51715;39.432;-77.518;2023-06-05T12:24:31;14;12;
65012;PMS5003;51715;39.432;-77.518;2023-06-05T12:26:59;17;13;
65012;PMS5003;51715;39.432;-77.518;2023-06-05T12:29:29;13;13;
65012;PMS5003;51715;39.432;-77.518;2023-06-05T12:32:19;12;12;
65012;PMS5003;51715;39.432;-77.518;2023-06-05T12:34:49;14;14;
65012;PMS5003;51715;39.432;-77.518;2023-06-05T12:37:22;13;11;
65012;PMS5003;51715;39.432;-77.518;2023-06-05T12:39:52;13;12;
65012;PMS5003;51715;39.432;-77.518;2023-06-05T12:42:20;16;16;
65012;PMS5003;51715;39.432;-77.518;2023-06-05T12:44:49;17;16;
65012;PMS5003;51715;39.432;-77.518;2023-06-05T12:47:17;13;13;
65012;PMS5003;51715;39.432;-77.518;2023-06-05T12:49:45;13;13;
65012;PMS5003;51715;39.432;-77.518;2023-06-05T12:52:13;12;10;
65012;PMS5003;51715;39.432;-77.518;2023-06-05T12:54:42;13;13;
65012;PMS5003;51715;39.432;-77.518;2023-06-05T12:57:10;18;16;
65012;PMS5003;51715;39.432;-77.518;2023-06-05T12:59:38;17;15;
65012;PMS5003;51715;39.432;-77.518;2023-06-05T13:02:07;17;15;
65012;PMS5003;51715;39.432;-77.518;2023-06-05T13:04:35;12;12;
65012;PMS5003;51715;39.432;-77.518;2023-06-05T13:07:04;12;11;
65012;PMS5003;51715;39.432;-77.518;2023-06-05T13:09:32;14;12;
65012;PMS5003;51715;39.432;-77.518;2023-06-05T13:12:02;16;13;
65012;PMS5003;51715;39.432;-77.518;2023-06-05T13:14:31;15;13;
65012;PMS5003;51715;39.432;-77.518;2023-06-05T13:16:59;16;14;
65012;PMS5003;51715;39.432;-77.518;2023-06-05T13:19:27;14;14;
65012;PMS5003;51715;39.432;-77.518;2023-06-05T13:21:56;16;14;
65012;PMS5003;51715;39.432;-77.518;2023-06-05T13:24:25;18;16;
65012;PMS5003;51715;39.432;-77.518;2023-06-05T13:26:53;16;13;
65012;PMS5003;51715;39.432;-77.518;2023-06-05T13:29:21;14;12;
65012;PMS5003;51715;39.432;-77.518;2023-06-05T13:31:49;15;15;
65012;PMS5003;51715;39.432;-77.518;2023-06-05T13:34:17;15;14;
65012;PMS5003;51715;39.432;-77.518;2023-06-05T13:36:45;14;14;
65012;PMS5003;51715;39.432;-77.518;2023-06-05T13:39:13;16;16;
65012;PMS5003;51715;39.432;-77.518;2023-06-05T13:41:42;12;12;
65012;PMS5003;51715;39.432;-77.518;2023-06-05T13:44:09;14;14;
65012;PMS5003;51715;39.432;-77.518;2023-06-05T13:46:38;14;13;
65012;PMS5003;51715;39.432;-77.518;2023-06-05T13:49:07;12;12;
65012;PMS5003;51715;39.432;-77.518;2023-06-05T13:51:35;19;18;
65012;PMS5003;51715;39.432;-77.518;2023-06-05T13:54:03;11;11;
65012;PMS5003;51715;39.432;-77.518;2023-06-05T13:56:32;16;16;
65012;PMS5003;51715;39.432;-77.518;2023-06-05T13:59:00;12;12;
65012;PMS5003;51715;39.432;-77.518;2023-06-05T14:01:29;10;10;
65012;PMS5003;51715;39.432;-77.518;2023-06-05T14:04:05;11;10;
65012;PMS5003;51715;39.432;-77.518;2023-06-05T14:06:34;12;11;
65012;PMS5003;51715;39.432;-77.518;2023-06-05T14:09:05;12;11;
65012;PMS5003;51715;39.432;-77.518;2023-06-05T14:11:34;9;9;
65012;PMS5003;51715;39.432;-77.518;2023-06-05T14:14:03;14;14;
65012;PMS5003;51715;39.432;-77.518;2023-06-05T14:16:32;10;10;
65012;PMS5003;51715;39.432;-77.518;2023-06-05T14:19:05;12;10;
65012;PMS5003;51715;39.432;-77.518;2023-06-05T14:21:33;12;12;
65012;PMS5003;51715;39.432;-77.518;2023-06-05T14:24:07;8;8;
65012;PMS5003;51715;39.432;-77.518;2023-06-05T14:26:35;10;9;
65012;PMS5003;51715;39.432;-77.518;2023-06-05T14:29:04;7;7;
65012;PMS5003;51715;39.432;-77.518;2023-06-05T14:31:32;10;10;
65012;PMS5003;51715;39.432;-77.518;2023-06-05T14:34:00;13;11;
65012;PMS5003;51715;39.432;-77.518;2023-06-05T14:36:28;13;9;
65012;PMS5003;51715;39.432;-77.518;2023-06-05T14:38:57;4;4;
65012;PMS5003;51715;39.432;-77.518;2023-06-05T14:41:27;8;8;
65012;PMS5003;51715;39.432;-77.518;2023-06-05T14:43:57;6;6;
65012;PMS5003;51715;39.432;-77.518;2023-06-05T14:46:25;10;9;
65012;PMS5003;51715;39.432;-77.518;2023-06-05T14:48:53;13;13;
65012;PMS5003;51715;39.432;-77.518;2023-06-05T14:51:21;10;10;
65012;PMS5003;51715;39.432;-77.518;2023-06-05T14:53:50;8;5;
65012;PMS5003;51715;39.432;-77.518;2023-06-05T14:56:18;10;8;
65012;PMS5003;51715;39.432;-77.518;2023-06-05T14:58:46;7;7;
65012;PMS5003;51715;39.432;-77.518;2023-06-05T15:01:15;9;9;
65012;PMS5003;51715;39.432;-77.518;2023-06-05T15:03:44;10;9;
65012;PMS5003;51715;39.432;-77.518;2023-06-05T15:06:13;7;6;
65012;PMS5003;51715;39.432;-77.518;2023-06-05T15:08:41;8;6;
65012;PMS5003;51715;39.432;-77.518;2023-06-05T15:11:09;8;7;
65012;PMS5003;51715;39.432;-77.518;2023-06-05T15:13:37;9;9;
65012;PMS5003;51715;39.432;-77.518;2023-06-05T15:16:06;6;6;
65012;PMS5003;51715;39.432;-77.518;2023-06-05T15:18:35;8;8;
65012;PMS5003;51715;39.432;-77.518;2023-06-05T15:21:04;7;7;
65012;PMS5003;51715;39.432;-77.518;2023-06-05T15:23:32;8;8;
65012;PMS5003;51715;39.432;-77.518;2023-06-05T15:26:00;10;10;
65012;PMS5003;51715;39.432;-77.518;2023-06-05T15:28:28;7;7;
65012;PMS5003;51715;39.432;-77.518;2023-06-05T15:30:56;7;7;
65012;PMS5003;51715;39.432;-77.518;2023-06-05T15:33:24;6;6;
65012;PMS5003;51715;39.432;-77.518;2023-06-05T15:35:52;6;6;
65012;PMS5003;51715;39.432;-77.518;2023-06-05T15:38:21;6;6;
65012;PMS5003;51715;39.432;-77.518;2023-06-05T15:40:49;8;7;
65012;PMS5003;51715;39.432;-77.518;2023-06-05T15:43:16;6;6;
65012;PMS5003;51715;39.432;-77.518;2023-06-05T15:45:44;7;7;
65012;PMS5003;51715;39.432;-77.518;2023-06-05T15:48:12;10;6;
65012;PMS5003;51715;39.432;-77.518;2023-06-05T15:50:41;5;5;
65012;PMS5003;51715;39.432;-77.518;2023-06-05T15:53:09;8;7;
65012;PMS5003;51715;39.432;-77.518;2023-06-05T15:55:38;4;4;
65012;PMS5003;51715;39.432;-77.518;2023-06-05T15:58:07;7;7;
65012;PMS5003;51715;39.432;-77.518;2023-06-05T16:00:36;9;9;
65012;PMS5003;51715;39.432;-77.518;2023-06-05T16:03:04;5;5;
65012;PMS5003;51715;39.432;-77.518;2023-06-05T16:05:33;7;6;
65012;PMS5003;51715;39.432;-77.518;2023-06-05T16:08:01;7;6;
65012;PMS5003;51715;39.432;-77.518;2023-06-05T16:10:30;5;5;
65012;PMS5003;51715;39.432;-77.518;2023-06-05T16:12:59;5;5;
65012;PMS5003;51715;39.432;-77.518;2023-06-05T16:15:28;5;5;